createdAt,value
2016-06-05T00:00:07.524Z,80.4
2016-06-05T00:00:17.508Z,80.9
2016-06-05T00:00:27.492Z,81
2016-06-05T00:00:37.477Z,81.4
2016-06-05T00:00:47.480Z,81.4
2016-06-05T00:00:57.464Z,81.2
2016-06-05T00:01:07.448Z,81
2016-06-05T00:01:17.433Z,81.1
2016-06-05T00:01:27.433Z,81.4
2016-06-05T00:01:37.417Z,81.1
2016-06-05T00:01:47.405Z,81.2
2016-06-05T00:01:57.389Z,81.3
2016-06-05T00:02:07.389Z,81.3
2016-06-05T00:02:17.373Z,81.3
2016-06-05T00:02:27.358Z,81.3
2016-06-05T00:02:37.342Z,81.4
2016-06-05T00:02:47.344Z,81.1
2016-06-05T00:02:57.328Z,81.1
2016-06-05T00:03:07.313Z,81.2
2016-06-05T00:03:17.297Z,81.5
2016-06-05T00:03:27.297Z,81.3
2016-06-05T00:03:37.282Z,81.3
2016-06-05T00:03:47.269Z,81.3
2016-06-05T00:03:57.269Z,80.6
2016-06-05T00:04:07.253Z,80.8
2016-06-05T00:04:17.238Z,80.9
2016-06-05T00:04:27.238Z,80.9
2016-06-05T00:04:37.206Z,81
2016-06-05T00:04:47.209Z,80.5
2016-06-05T00:04:57.194Z,80.6
2016-06-05T00:05:07.178Z,80.5
2016-06-05T00:05:17.163Z,80.6
2016-06-05T00:05:27.163Z,80.5
2016-06-05T00:05:37.147Z,80.6
2016-06-05T00:05:47.134Z,80.7
2016-06-05T00:05:57.119Z,80.6
2016-06-05T00:06:07.119Z,80.7
2016-06-05T00:06:17.103Z,80.9
2016-06-05T00:06:27.103Z,80.9
2016-06-05T00:06:37.087Z,80.9
2016-06-05T00:06:47.074Z,81.3
2016-06-05T00:06:57.058Z,80.8
2016-06-05T00:07:07.043Z,81.2
2016-06-05T00:07:17.027Z,81.1
2016-06-05T00:07:27.027Z,81.3
2016-06-05T00:07:37.011Z,81.4
2016-06-05T00:07:46.998Z,81.5
2016-06-05T00:07:56.998Z,81.2
2016-06-05T00:08:06.982Z,81.2
2016-06-05T00:08:16.966Z,81.1
2016-06-05T00:08:26.951Z,81.1
2016-06-05T00:08:36.935Z,81.3
2016-06-05T00:08:46.939Z,81.2
2016-06-05T00:08:56.924Z,81.3
2016-06-05T00:09:06.908Z,81.2
2016-06-05T00:09:16.908Z,81.1
2016-06-05T00:09:26.892Z,81.4
2016-06-05T00:09:36.877Z,81.2
2016-06-05T00:09:46.863Z,81.4
2016-06-05T00:09:56.863Z,81.8
2016-06-05T00:10:06.847Z,81.5
2016-06-05T00:10:16.832Z,82
2016-06-05T00:10:26.816Z,81.9
2016-06-05T00:10:36.816Z,82
2016-06-05T00:10:46.804Z,81.7
2016-06-05T00:10:56.788Z,81.7
2016-06-05T00:11:06.772Z,81.7
2016-06-05T00:11:16.772Z,81.9
2016-06-05T00:11:26.757Z,82.3
2016-06-05T00:11:36.757Z,82.4
2016-06-05T00:11:46.728Z,82.5
2016-06-05T00:11:56.728Z,82.3
2016-06-05T00:12:06.713Z,82.3
2016-06-05T00:12:16.697Z,82.3
2016-06-05T00:12:26.682Z,82.4
2016-06-05T00:12:36.682Z,82.3
2016-06-05T00:12:46.669Z,82.5
2016-06-05T00:12:56.653Z,82.5
2016-06-05T00:13:07.341Z,82.3
2016-06-05T00:13:16.638Z,82.7
2016-06-05T00:13:26.622Z,82.3
2016-06-05T00:13:36.606Z,82.1
2016-06-05T00:13:46.608Z,81.8
2016-06-05T00:13:56.593Z,82
2016-06-05T00:14:06.577Z,81.7
2016-06-05T00:14:16.562Z,81.9
2016-06-05T00:14:26.562Z,81.9
2016-06-05T00:14:36.546Z,81.7
2016-06-05T00:14:46.532Z,81.7
2016-06-05T00:14:56.517Z,81.8
2016-06-05T00:15:06.517Z,82
2016-06-05T00:15:16.501Z,82
2016-06-05T00:15:26.485Z,82.1
2016-06-05T00:15:36.470Z,82.1
2016-06-05T00:15:46.473Z,81.9
2016-06-05T00:15:56.457Z,82
2016-06-05T00:16:06.442Z,82.1
2016-06-05T00:16:16.426Z,81.9
2016-06-05T00:16:26.426Z,81.9
2016-06-05T00:16:36.426Z,81.9
2016-06-05T00:16:46.398Z,81.6
2016-06-05T00:16:56.398Z,81.4
2016-06-05T00:17:06.382Z,81.8
2016-06-05T00:17:16.382Z,81.9
2016-06-05T00:17:26.351Z,81.5
2016-06-05T00:17:36.351Z,81.6
2016-06-05T00:17:46.338Z,82
2016-06-05T00:17:56.323Z,82
2016-06-05T00:18:06.307Z,81.8
2016-06-05T00:18:16.307Z,81.6
2016-06-05T00:18:26.291Z,81.6
2016-06-05T00:18:47.544Z,81.8
2016-06-05T00:18:52.935Z,82
2016-06-05T00:19:02.888Z,81.8
2016-06-05T00:19:12.888Z,81.8
2016-06-05T00:19:22.872Z,81.9
2016-06-05T00:19:32.857Z,81.7
2016-06-05T00:19:42.841Z,81.9
2016-06-05T00:19:52.828Z,81.9
2016-06-05T00:20:02.828Z,81.8
2016-06-05T00:20:12.812Z,81.9
2016-06-05T00:20:22.812Z,81.8
2016-06-05T00:20:32.781Z,81.9
2016-06-05T00:20:42.781Z,81.9
2016-06-05T00:20:52.768Z,82.2
2016-06-05T00:21:02.752Z,81.9
2016-06-05T00:21:12.737Z,81.9
2016-06-05T00:21:22.737Z,81.8
2016-06-05T00:21:32.721Z,81.9
2016-06-05T00:21:42.706Z,81.7
2016-06-05T00:21:52.709Z,81.7
2016-06-05T00:22:02.693Z,81.7
2016-06-05T00:22:12.677Z,81.9
2016-06-05T00:22:22.662Z,81.9
2016-06-05T00:22:32.646Z,81.9
2016-06-05T00:22:42.646Z,82.1
2016-06-05T00:22:52.632Z,82.7
2016-06-05T00:23:02.617Z,82.3
2016-06-05T00:23:12.617Z,82.4
2016-06-05T00:23:22.601Z,82.5
2016-06-05T00:23:32.586Z,82.2
2016-06-05T00:23:42.570Z,82.3
2016-06-05T00:23:52.557Z,82.3
2016-06-05T00:24:02.557Z,82.1
2016-06-05T00:24:12.542Z,82.9
2016-06-05T00:24:22.526Z,82
2016-06-05T00:24:32.526Z,82.6
2016-06-05T00:24:42.510Z,82.7
2016-06-05T00:24:52.498Z,82.7
2016-06-05T00:25:02.482Z,82.5
2016-06-05T00:25:12.482Z,82.5
2016-06-05T00:25:22.467Z,82.5
2016-06-05T00:25:32.451Z,82.6
2016-06-05T00:25:42.451Z,82.6
2016-06-05T00:25:52.438Z,82.6
2016-06-05T00:26:02.423Z,82.3
2016-06-05T00:26:12.423Z,82.7
2016-06-05T00:26:22.407Z,82.6
2016-06-05T00:26:32.407Z,82.8
2016-06-05T00:26:42.376Z,82.6
2016-06-05T00:26:52.362Z,82.5
2016-06-05T00:27:02.347Z,82.5
2016-06-05T00:27:12.347Z,82.5
2016-06-05T00:27:22.550Z,83
2016-06-05T00:27:32.315Z,82.5
2016-06-05T00:27:42.300Z,82.5
2016-06-05T00:27:52.303Z,82.3
2016-06-05T00:28:02.287Z,82.4
2016-06-05T00:28:12.428Z,82.7
2016-06-05T00:28:22.725Z,82.7
2016-06-05T00:28:32.490Z,83
2016-06-05T00:28:42.240Z,82.6
2016-06-05T00:28:52.227Z,82.7
2016-06-05T00:29:02.211Z,82.5
2016-06-05T00:29:12.211Z,83.1
2016-06-05T00:29:22.195Z,83
2016-06-05T00:29:32.180Z,83
2016-06-05T00:29:42.180Z,83.1
2016-06-05T00:29:52.167Z,83
2016-06-05T00:30:02.151Z,82.9
2016-06-05T00:30:12.136Z,83.2
2016-06-05T00:30:22.136Z,83
2016-06-05T00:30:32.120Z,83.1
2016-06-05T00:30:42.105Z,83
2016-06-05T00:30:52.108Z,82.7
2016-06-05T00:31:02.092Z,83
2016-06-05T00:31:12.076Z,83
2016-06-05T00:31:22.061Z,83
2016-06-05T00:31:32.045Z,83
2016-06-05T00:31:42.045Z,82.7
2016-06-05T00:31:52.031Z,82.9
2016-06-05T00:32:02.016Z,82.7
2016-06-05T00:32:12.016Z,82.7
2016-06-05T00:32:22.000Z,82.8
2016-06-05T00:32:32.000Z,82.8
2016-06-05T00:32:41.969Z,83
2016-06-05T00:32:51.956Z,82.9
2016-06-05T00:33:01.956Z,82.9
2016-06-05T00:33:11.941Z,82.7
2016-06-05T00:33:21.925Z,82.8
2016-06-05T00:33:31.909Z,83.5
2016-06-05T00:33:41.909Z,83.2
2016-06-05T00:33:51.897Z,83.5
2016-06-05T00:34:01.881Z,83.2
2016-06-05T00:34:11.866Z,83.6
2016-06-05T00:34:21.866Z,83.5
2016-06-05T00:34:31.850Z,83.3
2016-06-05T00:34:41.834Z,83.7
2016-06-05T00:34:51.821Z,83.5
2016-06-05T00:35:01.821Z,83.6
2016-06-05T00:35:11.805Z,83.8
2016-06-05T00:35:21.789Z,83.6
2016-06-05T00:35:31.789Z,83.9
2016-06-05T00:35:41.774Z,83.5
2016-06-05T00:35:51.761Z,83.6
2016-06-05T00:36:01.746Z,83.9
2016-06-05T00:36:11.730Z,83.6
2016-06-05T00:36:21.730Z,83.9
2016-06-05T00:36:31.714Z,83.5
2016-06-05T00:36:41.699Z,83.9
2016-06-05T00:36:51.702Z,83.9
2016-06-05T00:37:01.686Z,84.1
2016-06-05T00:37:11.670Z,83.9
2016-06-05T00:37:21.655Z,84
2016-06-05T00:37:31.655Z,83.9
2016-06-05T00:37:41.639Z,83.9
2016-06-05T00:37:51.627Z,83.8
2016-06-05T00:38:01.611Z,83.8
2016-06-05T00:38:11.611Z,83.9
2016-06-05T00:38:21.595Z,84
2016-06-05T00:38:31.580Z,83.8
2016-06-05T00:38:41.580Z,83.9
2016-06-05T00:38:51.566Z,83.9
2016-06-05T00:39:01.550Z,83.9
2016-06-05T00:39:11.535Z,83.8
2016-06-05T00:39:21.519Z,83.9
2016-06-05T00:39:31.519Z,83.9
2016-06-05T00:39:41.519Z,83.9
2016-06-05T00:39:51.491Z,83.9
2016-06-05T00:40:01.475Z,83.9
2016-06-05T00:40:11.475Z,83.7
2016-06-05T00:40:21.460Z,84.1
2016-06-05T00:40:31.444Z,83.9
2016-06-05T00:40:41.428Z,83.9
2016-06-05T00:40:51.431Z,83.9
2016-06-05T00:41:01.416Z,83.6
2016-06-05T00:41:11.400Z,83.6
2016-06-05T00:41:21.385Z,83.8
2016-06-05T00:41:31.385Z,83.9
2016-06-05T00:41:41.369Z,84.2
2016-06-05T00:41:51.356Z,84.5
2016-06-05T00:42:01.356Z,83.9
2016-06-05T00:42:11.341Z,83.9
2016-06-05T00:42:21.388Z,84.6
2016-06-05T00:42:31.309Z,84.5
2016-06-05T00:42:41.294Z,83.9
2016-06-05T00:42:51.296Z,83.9
2016-06-05T00:43:01.280Z,84
2016-06-05T00:43:11.265Z,83.9
2016-06-05T00:43:21.265Z,83.9
2016-06-05T00:43:31.249Z,84.1
2016-06-05T00:43:41.233Z,83.9
2016-06-05T00:43:51.220Z,84
2016-06-05T00:44:01.220Z,84
2016-06-05T00:44:11.204Z,83.9
2016-06-05T00:44:21.188Z,83.8
2016-06-05T00:44:31.173Z,83.9
2016-06-05T00:44:41.173Z,83.9
2016-06-05T00:44:51.161Z,83.9
2016-06-05T00:45:01.146Z,83.8
2016-06-05T00:45:11.130Z,83.8
2016-06-05T00:45:21.130Z,83.9
2016-06-05T00:45:31.114Z,83.9
2016-06-05T00:45:41.099Z,84.2
2016-06-05T00:45:51.085Z,84.4
2016-06-05T00:46:01.069Z,84.2
2016-06-05T00:46:11.069Z,84.3
2016-06-05T00:46:21.054Z,84.5
2016-06-05T00:46:31.038Z,84.7
2016-06-05T00:46:41.023Z,84.5
2016-06-05T00:46:51.025Z,83.9
2016-06-05T00:47:01.009Z,83.9
2016-06-05T00:47:10.993Z,83.9
2016-06-05T00:47:20.978Z,84.5
2016-06-05T00:47:30.978Z,84.2
2016-06-05T00:47:40.962Z,84.3
2016-06-05T00:47:50.965Z,84.2
2016-06-05T00:48:00.949Z,84.7
2016-06-05T00:48:10.934Z,84.5
2016-06-05T00:48:20.918Z,84.4
2016-06-05T00:48:30.903Z,84.8
2016-06-05T00:48:40.903Z,84.9
2016-06-05T00:48:50.890Z,84.7
2016-06-05T00:49:00.874Z,84.7
2016-06-05T00:49:10.874Z,84.7
2016-06-05T00:49:20.859Z,84.6
2016-06-05T00:49:30.843Z,84.7
2016-06-05T00:49:40.827Z,84.8
2016-06-05T00:49:50.830Z,84.7
2016-06-05T00:50:00.815Z,84.4
2016-06-05T00:50:10.799Z,84.8
2016-06-05T00:50:20.784Z,84.7
2016-06-05T00:50:30.768Z,84.9
2016-06-05T00:50:40.768Z,84.5
2016-06-05T00:50:50.755Z,84.6
2016-06-05T00:51:00.755Z,84.9
2016-06-05T00:51:10.740Z,84.9
2016-06-05T00:51:20.724Z,84.9
2016-06-05T00:51:30.708Z,84.9
2016-06-05T00:51:40.693Z,85.1
2016-06-05T00:51:50.679Z,84.7
2016-06-05T00:52:00.679Z,84.8
2016-06-05T00:52:10.664Z,84.7
2016-06-05T00:52:20.648Z,84.4
2016-06-05T00:52:30.632Z,84.5
2016-06-05T00:52:40.632Z,84.7
2016-06-05T00:52:50.620Z,84.4
2016-06-05T00:53:00.604Z,84.2
2016-06-05T00:53:10.604Z,84.2
2016-06-05T00:53:20.588Z,84.2
2016-06-05T00:53:30.573Z,84.2
2016-06-05T00:53:40.557Z,84.2
2016-06-05T00:53:50.545Z,84.1
2016-06-05T00:54:00.545Z,84.2
2016-06-05T00:54:10.529Z,84.3
2016-06-05T00:54:20.513Z,84.2
2016-06-05T00:54:30.513Z,84.7
2016-06-05T00:54:40.498Z,84.6
2016-06-05T00:54:50.484Z,84.7
2016-06-05T00:55:00.468Z,84.6
2016-06-05T00:55:10.468Z,84.9
2016-06-05T00:55:20.453Z,85
2016-06-05T00:55:30.437Z,85
2016-06-05T00:55:40.422Z,85
2016-06-05T00:55:50.425Z,85.1
2016-06-05T00:56:00.409Z,85.3
2016-06-05T00:56:10.393Z,85.1
2016-06-05T00:56:20.378Z,85.1
2016-06-05T00:56:30.378Z,85.2
2016-06-05T00:56:40.362Z,85
2016-06-05T00:56:50.349Z,85.3
2016-06-05T00:57:00.334Z,85.1
2016-06-05T00:57:10.334Z,84.9
2016-06-05T00:57:20.318Z,85.1
2016-06-05T00:57:30.303Z,84.8
2016-06-05T00:57:40.334Z,84.8
2016-06-05T00:57:50.368Z,85
2016-06-05T00:58:00.274Z,85.2
2016-06-05T00:58:10.259Z,85.5
2016-06-05T00:58:20.259Z,85.4
2016-06-05T00:58:30.337Z,85.2
2016-06-05T00:58:40.227Z,85.1
2016-06-05T00:58:50.214Z,85.3
2016-06-05T00:59:00.214Z,85.4
2016-06-05T00:59:10.198Z,85.4
2016-06-05T00:59:20.183Z,85.3
2016-06-05T00:59:30.167Z,85.3
2016-06-05T00:59:40.167Z,85.4
2016-06-05T00:59:50.154Z,86.1
2016-06-05T01:00:00.139Z,85.8
2016-06-05T01:00:10.123Z,86
2016-06-05T01:00:20.107Z,85.8
2016-06-05T01:00:30.107Z,85.9
2016-06-05T01:00:40.092Z,85.9
2016-06-05T01:00:50.079Z,85.8
2016-06-05T01:01:00.064Z,85.8
2016-06-05T01:01:10.064Z,85.6
2016-06-05T01:01:20.048Z,85.5
2016-06-05T01:01:30.032Z,85.9
2016-06-05T01:01:40.032Z,85.5
2016-06-05T01:01:50.019Z,85.6
2016-06-05T01:02:00.003Z,85.9
2016-06-05T01:02:09.987Z,85.5
2016-06-05T01:02:19.987Z,85.5
2016-06-05T01:02:29.972Z,85.9
2016-06-05T01:02:39.956Z,85.8
2016-06-05T01:02:49.943Z,85.9
2016-06-05T01:02:59.943Z,85.4
2016-06-05T01:03:09.927Z,85.1
2016-06-05T01:03:19.911Z,85.2
2016-06-05T01:03:29.896Z,85.1
2016-06-05T01:03:39.896Z,85
2016-06-05T01:03:49.884Z,85.3
2016-06-05T01:03:59.868Z,84.8
2016-06-05T01:04:09.853Z,84.9
2016-06-05T01:04:19.853Z,85.1
2016-06-05T01:04:29.837Z,85.2
2016-06-05T01:04:39.822Z,85.1
2016-06-05T01:04:49.808Z,84.9
2016-06-05T01:04:59.792Z,84.6
2016-06-05T01:05:09.792Z,84.6
2016-06-05T01:05:19.777Z,84.9
2016-06-05T01:05:29.761Z,84.9
2016-06-05T01:05:39.761Z,85.1
2016-06-05T01:05:49.748Z,85.1
2016-06-05T01:05:59.733Z,85
2016-06-05T01:06:09.717Z,85
2016-06-05T01:06:19.702Z,84.9
2016-06-05T01:06:29.702Z,84.6
2016-06-05T01:06:39.686Z,84.9
2016-06-05T01:06:49.670Z,84.8
2016-06-05T01:06:59.673Z,84.6
2016-06-05T01:07:09.658Z,84.7
2016-06-05T01:07:19.642Z,84.4
2016-06-05T01:07:29.642Z,84.3
2016-06-05T01:07:39.626Z,84.3
2016-06-05T01:07:49.611Z,84.3
2016-06-05T01:07:59.597Z,84.4
2016-06-05T01:08:09.582Z,84.5
2016-06-05T01:08:19.582Z,84.2
2016-06-05T01:08:29.566Z,84.3
2016-06-05T01:08:39.550Z,84.1
2016-06-05T01:08:49.535Z,84.2
2016-06-05T01:08:59.538Z,84.4
2016-06-05T01:09:09.522Z,84.2
2016-06-05T01:09:19.506Z,84.2
2016-06-05T01:09:29.491Z,84.4
2016-06-05T01:09:39.491Z,84.2
2016-06-05T01:09:49.475Z,84.4
2016-06-05T01:09:59.463Z,84.7
2016-06-05T01:10:09.447Z,84.2
2016-06-05T01:10:19.447Z,84.1
2016-06-05T01:10:29.431Z,84.2
2016-06-05T01:10:39.416Z,84.3
2016-06-05T01:10:49.416Z,84.4
2016-06-05T01:10:59.403Z,84.1
2016-06-05T01:11:09.387Z,84
2016-06-05T01:11:19.372Z,84.4
2016-06-05T01:11:29.356Z,84.1
2016-06-05T01:11:39.356Z,84.4
2016-06-05T01:11:49.341Z,84.4
2016-06-05T01:11:59.327Z,84.7
2016-06-05T01:12:09.311Z,83.9
2016-06-05T01:12:19.311Z,83.9
2016-06-05T01:12:29.296Z,83.8
2016-06-05T01:12:39.296Z,83.7
2016-06-05T01:12:49.280Z,84
2016-06-05T01:12:59.267Z,83.9
2016-06-05T01:13:09.252Z,84
2016-06-05T01:13:19.236Z,84.2
2016-06-05T01:13:29.580Z,83.9
2016-06-05T01:13:39.221Z,84.5
2016-06-05T01:13:49.267Z,84.7
2016-06-05T01:13:59.191Z,84.3
2016-06-05T01:14:09.176Z,84.2
2016-06-05T01:14:19.176Z,84.2
2016-06-05T01:14:29.160Z,84.3
2016-06-05T01:14:39.144Z,84.4
2016-06-05T01:14:49.129Z,84.2
2016-06-05T01:14:59.132Z,84.2
2016-06-05T01:15:09.116Z,84.3
2016-06-05T01:15:19.101Z,84.2
2016-06-05T01:15:29.085Z,84.2
2016-06-05T01:15:39.085Z,84.2
2016-06-05T01:15:49.069Z,84.2
2016-06-05T01:15:59.057Z,84.4
2016-06-05T01:16:09.057Z,84.2
2016-06-05T01:16:19.041Z,84.3
2016-06-05T01:16:29.025Z,84.2
2016-06-05T01:16:39.025Z,84.2
2016-06-05T01:16:49.010Z,84.5
2016-06-05T01:16:58.996Z,84.6
2016-06-05T01:17:08.981Z,84.6
2016-06-05T01:17:18.965Z,84.7
2016-06-05T01:17:28.965Z,84.9
2016-06-05T01:17:38.949Z,84.7
2016-06-05T01:17:48.934Z,84.7
2016-06-05T01:17:58.937Z,84.5
2016-06-05T01:18:08.921Z,84.6
2016-06-05T01:18:18.905Z,84.9
2016-06-05T01:18:28.890Z,85
2016-06-05T01:18:38.874Z,84.7
2016-06-05T01:18:48.874Z,85.2
2016-06-05T01:18:58.862Z,85.3
2016-06-05T01:19:08.846Z,85.1
2016-06-05T01:19:18.846Z,85
2016-06-05T01:19:28.830Z,84.8
2016-06-05T01:19:38.815Z,84.8
2016-06-05T01:19:48.799Z,85.3
2016-06-05T01:19:58.786Z,84.9
2016-06-05T01:20:08.786Z,84.8
2016-06-05T01:20:18.771Z,84.9
2016-06-05T01:20:28.755Z,85
2016-06-05T01:20:38.740Z,85.4
2016-06-05T01:20:48.724Z,85.4
2016-06-05T01:20:58.743Z,85.3
2016-06-05T01:21:08.711Z,85.8
2016-06-05T01:21:18.696Z,85.5
2016-06-05T01:21:28.696Z,85.9
2016-06-05T01:21:38.680Z,85.7
2016-06-05T01:21:48.664Z,86
2016-06-05T01:21:58.651Z,86.2
2016-06-05T01:22:08.651Z,85.9
2016-06-05T01:22:18.635Z,86
2016-06-05T01:22:28.620Z,85.8
2016-06-05T01:22:38.604Z,85.5
2016-06-05T01:22:48.604Z,85.7
2016-06-05T01:22:58.591Z,86
2016-06-05T01:23:08.576Z,86
2016-06-05T01:23:18.560Z,86
2016-06-05T01:23:28.560Z,86
2016-06-05T01:23:38.544Z,86.2
2016-06-05T01:23:48.529Z,86.6
2016-06-05T01:23:58.515Z,86.4
2016-06-05T01:24:08.515Z,86.3
2016-06-05T01:24:18.500Z,86.4
2016-06-05T01:24:28.484Z,86
2016-06-05T01:24:38.468Z,86.5
2016-06-05T01:24:48.468Z,86.3
2016-06-05T01:24:58.456Z,86.1
2016-06-05T01:25:08.440Z,85.9
2016-06-05T01:25:18.424Z,85.8
2016-06-05T01:25:28.424Z,86
2016-06-05T01:25:38.409Z,86
2016-06-05T01:25:48.393Z,86
2016-06-05T01:25:58.396Z,86
2016-06-05T01:26:08.381Z,86
2016-06-05T01:26:18.365Z,86.2
2016-06-05T01:26:28.349Z,86.2
2016-06-05T01:26:38.334Z,85.9
2016-06-05T01:26:48.334Z,86.4
2016-06-05T01:26:58.320Z,86.4
2016-06-05T01:27:08.304Z,86.6
2016-06-05T01:27:18.304Z,86.7
2016-06-05T01:27:28.289Z,86.4
2016-06-05T01:27:38.273Z,86.4
2016-06-05T01:27:48.258Z,86.2
2016-06-05T01:27:58.823Z,86.7
2016-06-05T01:28:08.245Z,86.5
2016-06-05T01:28:19.073Z,86.3
2016-06-05T01:28:28.245Z,86.4
2016-06-05T01:28:38.198Z,86
2016-06-05T01:28:48.198Z,86.5
2016-06-05T01:28:58.185Z,86.8
2016-06-05T01:29:08.170Z,86.3
2016-06-05T01:29:18.154Z,86.6
2016-06-05T01:29:28.154Z,86.6
2016-06-05T01:29:38.139Z,86.5
2016-06-05T01:29:48.123Z,86.1
2016-06-05T01:29:58.109Z,86.4
2016-06-05T01:30:08.109Z,86.3
2016-06-05T01:30:18.094Z,86
2016-06-05T01:30:28.078Z,86.7
2016-06-05T01:30:38.062Z,86.5
2016-06-05T01:30:48.062Z,86.6
2016-06-05T01:30:58.051Z,86.8
2016-06-05T01:31:08.035Z,86.9
2016-06-05T01:31:18.020Z,86.4
2016-06-05T01:31:28.020Z,86.3
2016-06-05T01:31:38.004Z,86.4
2016-06-05T01:31:47.988Z,86.7
2016-06-05T01:31:57.975Z,86.7
2016-06-05T01:32:07.975Z,86.9
2016-06-05T01:32:17.959Z,86.6
2016-06-05T01:32:27.943Z,86.6
2016-06-05T01:32:37.943Z,86.4
2016-06-05T01:32:47.928Z,87
2016-06-05T01:32:57.914Z,86.3
2016-06-05T01:33:07.899Z,86.9
2016-06-05T01:33:17.899Z,86.8
2016-06-05T01:33:27.883Z,87
2016-06-05T01:33:37.867Z,86.9
2016-06-05T01:33:47.852Z,87.1
2016-06-05T01:33:57.839Z,86.9
2016-06-05T01:34:07.839Z,87.3
2016-06-05T01:34:17.823Z,87.3
2016-06-05T01:34:27.808Z,87.3
2016-06-05T01:34:37.792Z,87.2
2016-06-05T01:34:47.792Z,87.2
2016-06-05T01:34:57.780Z,87.2
2016-06-05T01:35:07.780Z,87
2016-06-05T01:35:17.764Z,87.2
2016-06-05T01:35:27.748Z,87.1
2016-06-05T01:35:37.733Z,87.2
2016-06-05T01:35:47.717Z,87.3
2016-06-05T01:35:57.704Z,87.7
2016-06-05T01:36:07.704Z,87.3
2016-06-05T01:36:17.689Z,87.3
2016-06-05T01:36:27.673Z,87.4
2016-06-05T01:36:37.673Z,87.3
2016-06-05T01:36:47.658Z,87.2
2016-06-05T01:36:57.645Z,87.2
2016-06-05T01:37:07.629Z,87
2016-06-05T01:37:17.629Z,87.2
2016-06-05T01:37:27.614Z,87.2
2016-06-05T01:37:37.598Z,87.3
2016-06-05T01:37:47.582Z,87.6
2016-06-05T01:37:57.584Z,87.5
2016-06-05T01:38:07.569Z,87.4
2016-06-05T01:38:17.569Z,86.8
2016-06-05T01:38:27.538Z,87.2
2016-06-05T01:38:37.522Z,86.8
2016-06-05T01:38:47.522Z,87
2016-06-05T01:38:57.508Z,86.8
2016-06-05T01:39:07.493Z,86.8
2016-06-05T01:39:17.477Z,86.8
2016-06-05T01:39:27.477Z,86.9
2016-06-05T01:39:37.461Z,86.8
2016-06-05T01:39:47.446Z,86.7
2016-06-05T01:39:57.450Z,86.7
2016-06-05T01:40:07.434Z,86.7
2016-06-05T01:40:17.419Z,86.8
2016-06-05T01:40:27.403Z,86.9
2016-06-05T01:40:37.403Z,86.8
2016-06-05T01:40:47.387Z,86.9
2016-06-05T01:40:57.374Z,87.4
2016-06-05T01:41:07.358Z,87.4
2016-06-05T01:41:17.358Z,87.4
2016-06-05T01:41:27.342Z,87.3
2016-06-05T01:41:37.327Z,87.5
2016-06-05T01:41:47.311Z,87.5
2016-06-05T01:41:57.314Z,87.3
2016-06-05T01:42:07.299Z,87.5
2016-06-05T01:42:17.283Z,87
2016-06-05T01:42:27.267Z,87.1
2016-06-05T01:42:37.439Z,87
2016-06-05T01:42:47.439Z,86.9
2016-06-05T01:42:57.239Z,86.7
2016-06-05T01:43:07.223Z,87
2016-06-05T01:43:17.223Z,86.7
2016-06-05T01:43:27.505Z,87.1
2016-06-05T01:43:37.239Z,87
2016-06-05T01:43:47.177Z,87
2016-06-05T01:43:57.180Z,87.4
2016-06-05T01:44:07.164Z,87.4
2016-06-05T01:44:17.148Z,87.2
2016-06-05T01:44:27.133Z,87
2016-06-05T01:44:37.133Z,87.8
2016-06-05T01:44:47.117Z,87.6
2016-06-05T01:44:57.103Z,87.9
2016-06-05T01:45:07.088Z,87.8
2016-06-05T01:45:17.088Z,87.5
2016-06-05T01:45:27.072Z,87.6
2016-06-05T01:45:37.057Z,87.6
2016-06-05T01:45:47.041Z,88
2016-06-05T01:45:57.043Z,88.2
2016-06-05T01:46:07.027Z,88
2016-06-05T01:46:17.012Z,88
2016-06-05T01:46:26.996Z,87.7
2016-06-05T01:46:36.996Z,87.9
2016-06-05T01:46:46.980Z,87.7
2016-06-05T01:46:56.968Z,87.9
2016-06-05T01:47:06.952Z,88.1
2016-06-05T01:47:16.952Z,88.1
2016-06-05T01:47:26.937Z,87.7
2016-06-05T01:47:36.921Z,87.8
2016-06-05T01:47:46.905Z,87.2
2016-06-05T01:47:56.893Z,87.5
2016-06-05T01:48:06.893Z,87.8
2016-06-05T01:48:16.877Z,87.2
2016-06-05T01:48:26.861Z,87.3
2016-06-05T01:48:36.861Z,87.1
2016-06-05T01:48:46.846Z,87.1
2016-06-05T01:48:56.832Z,87.7
2016-06-05T01:49:06.817Z,87.7
2016-06-05T01:49:16.817Z,87.6
2016-06-05T01:49:26.801Z,87.7
2016-06-05T01:49:36.785Z,87.4
2016-06-05T01:49:46.770Z,87.4
2016-06-05T01:49:56.774Z,87.5
2016-06-05T01:50:06.758Z,87.4
2016-06-05T01:50:16.742Z,87.8
2016-06-05T01:50:26.727Z,88
2016-06-05T01:50:36.727Z,87.5
2016-06-05T01:50:46.711Z,87.5
2016-06-05T01:50:56.698Z,87.8
2016-06-05T01:51:06.682Z,87.5
2016-06-05T01:51:16.682Z,87.5
2016-06-05T01:51:26.666Z,87.7
2016-06-05T01:51:36.651Z,87.7
2016-06-05T01:51:46.635Z,87.7
2016-06-05T01:51:56.638Z,87.6
2016-06-05T01:52:06.622Z,87.9
2016-06-05T01:52:16.607Z,87.8
2016-06-05T01:52:26.607Z,88
2016-06-05T01:52:36.591Z,87.9
2016-06-05T01:52:46.576Z,87.9
2016-06-05T01:52:56.562Z,88.4
2016-06-05T01:53:06.546Z,88.1
2016-06-05T01:53:16.546Z,88.5
2016-06-05T01:53:26.531Z,88.6
2016-06-05T01:53:36.515Z,88.4
2016-06-05T01:53:46.499Z,88.3
2016-06-05T01:53:56.502Z,88.2
2016-06-05T01:54:06.487Z,88.4
2016-06-05T01:54:16.471Z,88.4
2016-06-05T01:54:26.456Z,88.5
2016-06-05T01:54:36.456Z,88.5
2016-06-05T01:54:46.440Z,88.4
2016-06-05T01:54:56.427Z,88.4
2016-06-05T01:55:06.412Z,88.3
2016-06-05T01:55:16.412Z,88.4
2016-06-05T01:55:26.396Z,88.3
2016-06-05T01:55:36.380Z,88.5
2016-06-05T01:55:46.365Z,88.2
2016-06-05T01:55:56.352Z,88.6
2016-06-05T01:56:06.352Z,88.1
2016-06-05T01:56:16.337Z,88.4
2016-06-05T01:56:26.321Z,88.2
2016-06-05T01:56:36.321Z,88.2
2016-06-05T01:56:46.305Z,88.5
2016-06-05T01:56:56.292Z,88.2
2016-06-05T01:57:06.276Z,88.1
2016-06-05T01:57:16.260Z,88.2
2016-06-05T01:57:26.260Z,88.1
2016-06-05T01:57:36.901Z,88.3
2016-06-05T01:57:46.276Z,88.5
2016-06-05T01:57:56.216Z,89.3
2016-06-05T01:58:06.216Z,88.9
2016-06-05T01:58:16.325Z,88.7
2016-06-05T01:58:26.200Z,88.8
2016-06-05T01:58:36.184Z,89
2016-06-05T01:58:46.481Z,88.6
2016-06-05T01:58:56.156Z,89.1
2016-06-05T01:59:06.140Z,88.8
2016-06-05T01:59:16.140Z,88.8
2016-06-05T01:59:26.125Z,88.6
2016-06-05T01:59:36.109Z,88.6
2016-06-05T01:59:46.094Z,89.3
2016-06-05T01:59:56.098Z,89.3
2016-06-05T02:00:06.082Z,89
2016-06-05T02:00:16.066Z,89.1
2016-06-05T02:00:26.051Z,89.3
2016-06-05T02:00:36.051Z,88.9
2016-06-05T02:00:46.035Z,88.8
2016-06-05T02:00:56.021Z,88.7
2016-06-05T02:01:06.006Z,88.8
2016-06-05T02:01:15.990Z,88.8
2016-06-05T02:01:25.990Z,89
2016-06-05T02:01:35.975Z,88.7
2016-06-05T02:01:45.959Z,88.8
2016-06-05T02:01:55.962Z,88.9
2016-06-05T02:02:05.946Z,88.6
2016-06-05T02:02:15.931Z,88.8
2016-06-05T02:02:25.915Z,88.9
2016-06-05T02:02:35.915Z,88.9
2016-06-05T02:02:45.899Z,88.9
2016-06-05T02:02:55.902Z,88.8
2016-06-05T02:03:05.871Z,89
2016-06-05T02:03:15.871Z,89
2016-06-05T02:03:25.856Z,89.1
2016-06-05T02:03:35.840Z,88.9
2016-06-05T02:03:45.824Z,88.9
2016-06-05T02:03:55.826Z,88.7
2016-06-05T02:04:05.811Z,89.2
2016-06-05T02:04:15.795Z,89.2
2016-06-05T02:04:25.779Z,89.3
2016-06-05T02:04:35.779Z,88.7
2016-06-05T02:04:45.764Z,88.6
2016-06-05T02:04:55.751Z,88.8
2016-06-05T02:05:05.736Z,88.7
2016-06-05T02:05:15.736Z,88.8
2016-06-05T02:05:25.720Z,88.9
2016-06-05T02:05:35.704Z,88.7
2016-06-05T02:05:45.689Z,88.8
2016-06-05T02:05:55.691Z,89.2
2016-06-05T02:06:05.675Z,89.2
2016-06-05T02:06:15.659Z,89.3
2016-06-05T02:06:25.644Z,89
2016-06-05T02:06:35.628Z,89.2
2016-06-05T02:06:45.644Z,89.2
2016-06-05T02:06:55.616Z,88.8
2016-06-05T02:07:05.600Z,88.7
2016-06-05T02:07:15.600Z,88.7
2016-06-05T02:07:25.584Z,88.6
2016-06-05T02:07:35.569Z,89
2016-06-05T02:07:45.553Z,88.9
2016-06-05T02:07:55.540Z,89
2016-06-05T02:08:05.540Z,88.6
2016-06-05T02:08:15.540Z,88.9
2016-06-05T02:08:25.509Z,89
2016-06-05T02:08:35.509Z,88.8
2016-06-05T02:08:45.494Z,88.8
2016-06-05T02:08:55.480Z,88.7
2016-06-05T02:09:05.464Z,89
2016-06-05T02:09:15.449Z,88.9
2016-06-05T02:09:25.449Z,88.9
2016-06-05T02:09:35.433Z,89
2016-06-05T02:09:45.417Z,88.8
2016-06-05T02:09:55.405Z,88.8
2016-06-05T02:10:05.405Z,89
2016-06-05T02:10:15.389Z,88.9
2016-06-05T02:10:25.389Z,88.9
2016-06-05T02:10:35.358Z,88.8
2016-06-05T02:10:45.358Z,88.7
2016-06-05T02:10:55.345Z,88.8
2016-06-05T02:11:05.330Z,88.8
2016-06-05T02:11:15.314Z,88.9
2016-06-05T02:11:25.314Z,89.1
2016-06-05T02:11:35.298Z,89
2016-06-05T02:11:45.298Z,88.8
2016-06-05T02:11:55.270Z,89.1
2016-06-05T02:12:05.270Z,88.7
2016-06-05T02:12:15.255Z,89
2016-06-05T02:12:25.239Z,88.9
2016-06-05T02:12:35.223Z,88.9
2016-06-05T02:12:45.223Z,88.7
2016-06-05T02:12:55.210Z,88.9
2016-06-05T02:13:05.194Z,88.7
2016-06-05T02:13:15.178Z,88.7
2016-06-05T02:13:25.741Z,89.3
2016-06-05T02:13:35.163Z,89.1
2016-06-05T02:13:45.147Z,88.9
2016-06-05T02:13:55.135Z,89.5
2016-06-05T02:14:05.135Z,89.1